Aviation Digital Data Service (ADDS)

Output produced by METARs form (0659 UTC 24 October 2014)
found at http://www.aviationweather.gov/adds/metars/
 
KBOS 240538Z 2406/2512 36013G21KT 5SM BR VCSH OVC012 
     FM241500 33010G18KT P6SM OVC015 
     FM242100 32008KT P6SM OVC025 
     FM250000 32008KT P6SM OVC090 
     FM250900 29007KT P6SM SCT250